Spring City, UT (84662)

10:10 PM MST on February 11, 2016 (GMT -0700)
KUTSPRIN7 | | Change Station
CLOSE
Current Station
Personal Weather Station
Location: Spring City, UT
Elevation: 5843 ft
Nearby Weather Stations

Elev 5843 ft 39.48 °N, 111.49 °W | Updated 25 minutes ago

Partly Cloudy
Partly Cloudy
33.6 °F
Feels Like 34 °F
N
0.0
Wind Variable Wind from SSE
Gusts 3.0 mph

Today
High -- | Low -- °F
--% Chance of Precip.
Yesterday
High -- | Low -- °F
Precip. -- in
Pressure 30.50 in
Visibility 10.0 miles
Clouds Clear
Windchill 34 °F
Dew Point 22 °F
Humidity 61%
Rainfall 0.00 in
Snow Depth Not available.
7:23 AM 5:57 PM
Waxing Crescent, 17% visible
METAR KPUC 120453Z AUTO 04005KT 10SM CLR M02/M06 A3038 RMK AO2 SLP326 T10171056
Pressure 30.50 in
Visibility 10.0 miles
Clouds Clear
Windchill 34 °F
Dew Point 22 °F
Humidity 61%
Rainfall 0.00 in
Snow Depth Not available.
7:23 AM 5:57 PM
Waxing Crescent, 17% visible
METAR KPUC 120453Z AUTO 04005KT 10SM CLR M02/M06 A3038 RMK AO2 SLP326 T10171056

10-Day Weather Forecast

Almanac

Astronomy

Feb. 11, 2016 Rise Set
Actual Time
Civil Twilight
Nautical Twilight
Astronomical Twilight
Moon
Length of Visible Light
Length of Day
Tomorrow will be .
, % of the Moon is Illuminated

Today's Extremes

State Highs State Lows

Community

WunderPhotos

Upload Photos

1,892,265 photos uploaded!

WunderBlog® & News

Nearby

Air Quality

  Air Quality AQ Index Pollutant
Not available.

Snow Depth

Station Depth Elevation

Earthquake Activity

City Distance Mag. Time & Date
Minimum magnitude displayed is 2.5.

Coastal Water Temperatures

Place Temperature

Stations

Nearby Weather Stations

Station Location Temp. Windchill Dew Point Humidity Wind Precip. Elev Updated Type
                   

Watches & Warnings

There are currently no watches in effect.